Time;durP1;ratioP1;P1;durP2;ratioP2;P2;SDS_P1;SDS_P2;PMS_P1;PMS_P2;Temp;Humidity;BMP_temperature;BMP_pressure;BME280_temperature;BME280_humidity;BME280_pressure;Samples;Min_cycle;Max_cycle;Signal;HPM_P1;HPM_P2
2021/08/31 00:00:55;;;;;;;4.00;3.70;;;16.90;99.90;;;;;;5049059;28;20649;-56
2021/08/31 00:03:21;;;;;;;4.73;4.23;;;16.90;99.90;;;;;;5050906;28;20214;-56
2021/08/31 00:05:46;;;;;;;5.40;4.90;;;16.90;99.90;;;;;;5051130;28;20184;-57
2021/08/31 00:08:12;;;;;;;5.57;4.67;;;16.90;99.90;;;;;;5050492;28;20222;-58
2021/08/31 00:10:38;;;;;;;5.37;4.97;;;16.90;99.90;;;;;;5049402;28;20180;-56
2021/08/31 00:13:03;;;;;;;8.20;4.97;;;16.90;99.90;;;;;;5051440;28;20187;-56
2021/08/31 00:15:29;;;;;;;5.43;4.93;;;16.90;99.90;;;;;;5051025;28;20188;-57
2021/08/31 00:17:56;;;;;;;5.50;5.00;;;17.00;99.90;;;;;;5051382;28;20234;-57
2021/08/31 00:20:22;;;;;;;6.47;5.20;;;19.60;99.90;;;;;;5049978;28;20232;-57
2021/08/31 00:22:47;;;;;;;6.43;4.80;;;17.00;99.90;;;;;;5049252;28;20878;-58
2021/08/31 00:25:13;;;;;;;6.00;5.40;;;17.10;99.90;;;;;;5050668;28;20331;-58
2021/08/31 00:27:38;;;;;;;6.03;5.53;;;17.10;99.90;;;;;;5049517;28;20665;-58
2021/08/31 00:30:05;;;;;;;5.53;5.03;;;17.10;99.90;;;;;;5050984;28;20194;-56
2021/08/31 00:32:31;;;;;;;6.20;5.60;;;17.20;99.90;;;;;;5049378;28;20188;-56
2021/08/31 00:34:56;;;;;;;7.63;6.10;;;17.20;99.90;;;;;;5049285;28;20468;-56
2021/08/31 00:37:22;;;;;;;9.17;6.93;;;17.20;99.90;;;;;;5048607;28;20583;-56
2021/08/31 00:39:47;;;;;;;9.40;6.67;;;17.10;99.90;;;;;;5051088;28;20191;-56
2021/08/31 00:42:13;;;;;;;6.73;6.13;;;17.10;99.90;;;;;;5048741;28;20191;-57
2021/08/31 00:44:39;;;;;;;8.00;7.20;;;17.00;99.90;;;;;;5050530;28;20284;-57
2021/08/31 00:47:08;;;;;;;7.40;6.60;;;17.00;99.90;;;;;;5051021;28;20438;-57
2021/08/31 00:49:33;;;;;;;8.63;7.53;;;17.10;99.90;;;;;;5049923;28;20582;-58
2021/08/31 00:52:00;;;;;;;10.10;7.37;;;17.10;99.90;;;;;;5050024;28;20498;-57
2021/08/31 00:54:28;;;;;;;10.10;7.80;;;17.10;99.90;;;;;;5051123;28;20260;-58
2021/08/31 00:56:55;;;;;;;8.30;7.50;;;17.10;99.90;;;;;;5057490;28;20474;-55
2021/08/31 00:59:21;;;;;;;8.80;8.00;;;17.10;99.90;;;;;;5050515;28;20787;-58
2021/08/31 01:01:55;;;;;;;8.83;7.97;;;17.10;99.90;;;;;;5050265;28;20542;-57
2021/08/31 01:04:28;;;;;;;11.03;8.97;;;17.20;99.90;;;;;;5045800;28;20459;-57
2021/08/31 01:06:55;;;;;;;12.23;10.40;;;17.10;99.90;;;;;;5047190;28;20442;-57
2021/08/31 01:09:22;;;;;;;11.30;8.50;;;17.10;99.90;;;;;;5047851;28;20438;-56
2021/08/31 01:11:49;;;;;;;11.23;10.13;;;17.10;99.90;;;;;;5047653;28;20516;-57
2021/08/31 01:14:15;;;;;;;9.97;8.97;;;17.00;99.90;;;;;;5046715;28;20451;-58
2021/08/31 01:16:41;;;;;;;10.50;9.30;;;16.90;99.90;;;;;;5049704;28;20487;-57
2021/08/31 01:19:07;;;;;;;10.43;9.43;;;16.90;99.90;;;;;;5050059;28;20450;-58
2021/08/31 01:21:33;;;;;;;10.20;9.20;;;17.00;99.90;;;;;;5043083;28;20454;-56
2021/08/31 01:23:58;;;;;;;13.07;9.40;;;17.10;99.90;;;;;;5045067;28;20214;-56
2021/08/31 01:26:25;;;;;;;13.20;9.67;;;17.20;99.90;;;;;;5050223;28;20188;-58
2021/08/31 01:28:50;;;;;;;11.00;9.30;;;17.20;99.90;;;;;;5049867;28;20281;-57
2021/08/31 01:31:16;;;;;;;13.90;9.67;;;17.10;99.90;;;;;;5049941;28;20624;-57
2021/08/31 01:33:42;;;;;;;12.87;10.90;;;17.10;99.90;;;;;;5050160;28;20667;-56
2021/08/31 01:36:20;;;;;;;12.50;10.57;;;16.90;99.90;;;;;;5048977;28;20226;-57
2021/08/31 01:38:47;;;;;;;13.30;10.77;;;17.00;99.90;;;;;;5046581;28;20650;-57
2021/08/31 01:41:12;;;;;;;11.73;10.50;;;17.00;99.90;;;;;;5053376;28;20523;-57
2021/08/31 01:43:38;;;;;;;14.37;11.43;;;17.10;99.90;;;;;;5053392;28;20895;-57
2021/08/31 01:46:04;;;;;;;12.20;9.73;;;17.10;99.90;;;;;;5053795;28;20679;-60
2021/08/31 01:48:30;;;;;;;13.10;10.23;;;17.10;99.90;;;;;;5053730;28;20454;-57
2021/08/31 01:50:56;;;;;;;11.10;9.90;;;;;;;;;;5053679;28;20936;-58
2021/08/31 01:53:22;;;;;;;11.73;10.37;;;17.00;99.90;;;;;;5053481;28;20193;-58
2021/08/31 01:55:47;;;;;;;12.53;9.50;;;17.10;99.90;;;;;;5054347;28;20434;-57
2021/08/31 01:58:13;;;;;;;10.97;9.93;;;16.90;99.90;;;;;;5050857;28;20187;-57
2021/08/31 02:00:38;;;;;;;11.23;10.07;;;17.00;99.90;;;;;;5063319;28;20186;-58
2021/08/31 02:03:04;;;;;;;16.37;12.47;;;17.10;99.90;;;;;;5053802;28;20209;-57
2021/08/31 02:05:30;;;;;;;13.87;11.50;;;17.10;99.90;;;;;;5051019;28;20210;-56
2021/08/31 02:07:55;;;;;;;12.30;10.70;;;17.00;99.90;;;;;;5053791;28;20200;-57
2021/08/31 02:10:22;;;;;;;12.13;10.87;;;17.00;99.90;;;;;;5051231;28;20683;-58
2021/08/31 02:12:47;;;;;;;14.10;11.10;;;17.00;99.90;;;;;;5052803;28;20543;-57
2021/08/31 02:15:13;;;;;;;11.30;10.20;;;16.90;99.90;;;;;;5050738;28;20469;-58
2021/08/31 02:17:39;;;;;;;11.77;10.67;;;16.90;99.90;;;;;;5053683;28;20268;-58
2021/08/31 02:20:06;;;;;;;14.50;11.40;;;16.90;99.90;;;;;;5053358;28;20645;-57
2021/08/31 02:22:32;;;;;;;12.97;11.67;;;16.90;99.90;;;;;;5048308;28;20245;-58
2021/08/31 02:24:58;;;;;;;12.43;11.13;;;17.00;99.90;;;;;;5052732;28;20469;-57
2021/08/31 02:27:23;;;;;;;16.33;11.47;;;16.90;99.90;;;;;;5052650;28;20179;-58
2021/08/31 02:29:49;;;;;;;14.13;11.70;;;16.90;99.90;;;;;;5053125;28;20186;-59
2021/08/31 02:32:14;;;;;;;13.00;11.43;;;16.90;99.90;;;;;;5052149;28;20259;-58
2021/08/31 02:34:40;;;;;;;13.50;10.50;;;17.00;99.90;;;;;;5050944;28;20231;-57
2021/08/31 02:37:06;;;;;;;13.53;11.20;;;17.00;99.90;;;;;;5053436;28;20187;-58
2021/08/31 02:39:32;;;;;;;12.70;11.40;;;18.40;99.90;;;;;;5050128;28;20189;-58
2021/08/31 02:41:58;;;;;;;13.17;11.50;;;17.00;99.90;;;;;;5052264;28;20471;-58
2021/08/31 02:44:23;;;;;;;14.57;13.07;;;17.00;99.90;;;;;;5052933;28;20469;-57
2021/08/31 02:46:49;;;;;;;12.80;11.50;;;16.90;99.90;;;;;;5052900;28;20214;-57
2021/08/31 02:49:15;;;;;;;14.30;12.27;;;16.80;99.90;;;;;;5051209;28;20191;-57
2021/08/31 02:51:40;;;;;;;14.43;13.00;;;16.70;99.90;;;;;;5052160;28;20173;-57
2021/08/31 02:54:06;;;;;;;14.17;12.67;;;16.80;99.90;;;;;;5053011;28;20647;-58
2021/08/31 02:56:32;;;;;;;15.33;13.73;;;16.80;99.90;;;;;;5049878;28;20546;-56
2021/08/31 02:58:57;;;;;;;14.43;12.83;;;16.70;99.90;;;;;;5052604;28;20451;-57
2021/08/31 03:03:58;;;;;;;15.97;12.30;;;16.80;99.90;;;;;;5051590;28;20232;-58
2021/08/31 03:06:25;;;;;;;13.60;12.23;;;16.70;99.90;;;;;;5063014;28;20500;-58
2021/08/31 03:08:51;;;;;;;14.43;12.50;;;16.70;99.90;;;;;;5050570;28;20439;-58
2021/08/31 03:11:16;;;;;;;16.30;13.97;;;16.70;99.90;;;;;;5051462;28;20444;-59
2021/08/31 03:13:42;;;;;;;17.80;14.47;;;16.70;99.90;;;;;;5049310;28;20248;-57
2021/08/31 03:16:08;;;;;;;15.50;13.83;;;16.80;99.90;;;;;;5045341;28;20215;-58
2021/08/31 03:18:33;;;;;;;15.57;13.10;;;16.70;99.90;;;;;;5054614;28;20193;-58
2021/08/31 03:20:59;;;;;;;14.60;13.10;;;16.70;99.90;;;;;;5051313;28;20197;-57
2021/08/31 03:23:25;;;;;;;15.83;14.13;;;16.70;99.90;;;;;;5050004;28;20201;-56
2021/08/31 03:25:50;;;;;;;16.10;13.77;;;16.60;99.90;;;;;;5070797;28;20191;-58
2021/08/31 03:28:16;;;;;;;14.43;12.90;;;16.60;99.90;;;;;;5049661;28;20557;-59
2021/08/31 03:30:41;;;;;;;15.40;13.13;;;16.60;99.90;;;;;;5052162;28;20674;-57
2021/08/31 03:33:07;;;;;;;17.80;13.70;;;16.60;99.90;;;;;;5051130;28;20184;-57
2021/08/31 03:35:32;;;;;;;16.83;12.90;;;16.60;99.90;;;;;;5050591;28;20237;-57
2021/08/31 03:37:58;;;;;;;17.97;13.47;;;16.60;99.90;;;;;;5051231;28;20218;-59
2021/08/31 03:40:23;;;;;;;18.50;13.13;;;16.60;99.90;;;;;;5050859;28;20221;-58
2021/08/31 03:42:49;;;;;;;16.40;13.07;;;16.60;99.90;;;;;;5051543;28;20585;-57
2021/08/31 03:45:15;;;;;;;16.43;14.20;;;20.10;99.90;;;;;;5050445;28;20229;-57
2021/08/31 03:47:41;;;;;;;16.97;13.20;;;16.70;99.90;;;;;;5050635;28;20640;-57
2021/08/31 03:50:08;;;;;;;17.93;13.87;;;16.60;99.90;;;;;;5050620;28;20430;-58
2021/08/31 03:52:34;;;;;;;14.47;12.93;;;16.60;99.90;;;;;;5049010;28;20194;-58
2021/08/31 03:55:00;;;;;;;13.90;12.07;;;16.60;99.90;;;;;;5049627;28;20462;-57
2021/08/31 03:57:26;;;;;;;17.20;12.03;;;16.60;99.90;;;;;;5056462;28;20186;-57
2021/08/31 03:59:51;;;;;;;17.83;12.97;;;16.60;99.90;;;;;;5050770;28;20518;-57
2021/08/31 04:02:17;;;;;;;16.40;13.20;;;16.70;99.90;;;;;;5050917;28;20434;-58
2021/08/31 04:04:43;;;;;;;14.83;11.90;;;16.70;99.90;;;;;;5050491;28;20292;-58
2021/08/31 04:07:08;;;;;;;13.47;11.87;;;16.60;99.90;;;;;;5051168;28;20193;-57
2021/08/31 04:09:34;;;;;;;12.17;10.90;;;16.70;99.90;;;;;;5051566;28;20266;-58
2021/08/31 04:11:59;;;;;;;12.57;11.27;;;16.70;99.90;;;;;;5067105;28;20228;-57
2021/08/31 04:14:25;;;;;;;15.03;12.07;;;16.70;99.90;;;;;;5061955;28;21403;-58
2021/08/31 04:16:50;;;;;;;15.07;11.07;;;16.80;99.90;;;;;;5061159;28;20219;-59
2021/08/31 04:19:16;;;;;;;15.97;11.13;;;16.70;99.90;;;;;;5051145;28;20528;-58
2021/08/31 04:21:41;;;;;;;12.07;10.87;;;16.70;99.90;;;;;;5057829;28;20198;-57
2021/08/31 04:24:07;;;;;;;14.90;11.53;;;16.60;99.90;;;;;;5051385;28;20215;-57
2021/08/31 04:26:33;;;;;;;11.60;10.43;;;16.70;99.90;;;;;;5063773;28;20284;-58
2021/08/31 04:28:59;;;;;;;12.80;11.43;;;16.60;99.90;;;;;;5057496;28;20452;-58
2021/08/31 04:31:24;;;;;;;12.67;11.27;;;16.60;99.90;;;;;;5059502;28;20546;-58
2021/08/31 04:33:51;;;;;;;14.10;11.13;;;16.70;99.90;;;;;;5055134;28;20497;-59
2021/08/31 04:36:17;;;;;;;11.93;10.80;;;16.60;99.90;;;;;;5053729;28;20192;-58
2021/08/31 04:38:42;;;;;;;12.90;10.50;;;16.50;99.90;;;;;;5061609;28;20530;-58
2021/08/31 04:41:08;;;;;;;14.10;10.33;;;16.50;99.90;;;;;;5054645;28;20805;-58
2021/08/31 04:43:34;;;;;;;10.60;9.50;;;16.70;99.90;;;;;;5066364;28;20658;-59
2021/08/31 04:45:59;;;;;;;13.87;11.37;;;16.70;99.90;;;;;;5050078;28;20589;-55
2021/08/31 04:48:25;;;;;;;11.93;10.57;;;16.70;99.90;;;;;;5049902;28;20191;-55
2021/08/31 04:50:50;;;;;;;12.83;10.10;;;16.60;99.90;;;;;;5052981;28;20657;-55
2021/08/31 04:53:20;;;;;;;13.40;10.40;;;16.60;99.90;;;;;;5070472;28;20174;-55
2021/08/31 04:55:47;;;;;;;13.27;10.43;;;16.60;99.90;;;;;;5058059;28;20193;-55
2021/08/31 04:58:12;;;;;;;11.67;9.83;;;16.70;99.90;;;;;;5050309;28;20503;-55
2021/08/31 05:00:38;;;;;;;20.50;11.70;;;16.60;99.90;;;;;;5049768;28;20508;-56
2021/08/31 05:03:04;;;;;;;12.17;10.97;;;16.50;99.90;;;;;;5049476;28;20241;-56
2021/08/31 05:05:30;;;;;;;16.17;11.43;;;16.50;99.90;;;;;;5049203;28;20205;-56
2021/08/31 05:07:56;;;;;;;14.70;10.70;;;16.40;99.90;;;;;;5050267;28;20469;-56
2021/08/31 05:10:21;;;;;;;14.20;11.43;;;16.40;99.90;;;;;;5050233;28;20676;-56
2021/08/31 05:12:47;;;;;;;14.97;12.93;;;16.40;99.90;;;;;;5049827;28;20422;-55
2021/08/31 05:15:12;;;;;;;15.20;11.73;;;16.40;99.90;;;;;;5050091;28;20173;-55
2021/08/31 05:17:39;;;;;;;23.03;11.77;;;;;;;;;;5049596;28;20189;-54
2021/08/31 05:20:06;;;;;;;13.40;11.80;;;16.30;99.90;;;;;;5048809;28;20190;-55
2021/08/31 05:22:32;;;;;;;14.00;11.50;;;16.30;99.90;;;;;;5048838;28;20479;-56
2021/08/31 05:25:00;;;;;;;15.10;11.63;;;16.40;99.90;;;;;;5049913;28;20462;-56
2021/08/31 05:27:26;;;;;;;18.33;12.93;;;16.40;99.90;;;;;;5044737;28;20439;-55
2021/08/31 05:29:52;;;;;;;16.03;13.10;;;16.30;99.90;;;;;;5049886;28;20470;-56
2021/08/31 05:32:18;;;;;;;15.57;12.43;;;16.30;99.90;;;;;;5048392;28;20191;-55
2021/08/31 05:34:44;;;;;;;13.57;10.87;;;16.20;99.90;;;;;;5049184;28;20230;-55
2021/08/31 05:37:09;;;;;;;14.60;12.50;;;16.20;99.90;;;;;;5049742;28;20443;-55
2021/08/31 05:39:35;;;;;;;14.27;12.77;;;16.30;99.90;;;;;;5049577;28;20694;-55
2021/08/31 05:42:01;;;;;;;15.03;12.30;;;16.30;99.90;;;;;;5049781;28;20549;-54
2021/08/31 05:44:27;;;;;;;13.23;11.53;;;16.30;99.90;;;;;;5049627;28;20298;-55
2021/08/31 05:46:53;;;;;;;14.43;11.47;;;17.90;99.90;;;;;;5049463;28;20533;-55
2021/08/31 05:49:18;;;;;;;13.50;12.00;;;16.30;99.90;;;;;;5049371;28;20196;-56
2021/08/31 05:51:44;;;;;;;14.90;11.87;;;16.40;99.90;;;;;;5048772;28;20215;-57
2021/08/31 05:54:12;;;;;;;13.03;11.77;;;16.40;99.90;;;;;;5049535;28;20516;-56
2021/08/31 05:56:38;;;;;;;14.07;12.30;;;16.40;99.90;;;;;;5049579;28;20203;-55
2021/08/31 05:59:04;;;;;;;13.83;11.40;;;16.30;99.90;;;;;;5049091;28;20518;-57
2021/08/31 06:01:29;;;;;;;14.13;10.83;;;16.30;99.90;;;;;;5049294;28;20228;-55
2021/08/31 06:03:55;;;;;;;12.13;10.83;;;16.30;99.90;;;;;;5048934;28;20220;-55
2021/08/31 06:06:20;;;;;;;16.30;11.67;;;16.20;99.90;;;;;;5049205;28;20189;-54
2021/08/31 06:08:46;;;;;;;15.47;11.67;;;16.20;99.90;;;;;;5049054;28;20579;-55
2021/08/31 06:11:12;;;;;;;13.30;11.90;;;16.20;99.90;;;;;;5049551;28;20278;-54
2021/08/31 06:13:38;;;;;;;16.10;12.33;;;16.30;99.90;;;;;;5048995;28;20181;-55
2021/08/31 06:16:04;;;;;;;14.40;11.50;;;16.30;99.90;;;;;;5048599;28;20458;-55
2021/08/31 06:18:29;;;;;;;12.83;11.53;;;16.30;99.90;;;;;;5049697;28;20460;-54
2021/08/31 06:20:55;;;;;;;14.40;11.33;;;16.30;99.90;;;;;;5048751;28;20212;-55
2021/08/31 06:23:20;;;;;;;13.40;11.60;;;16.40;99.90;;;;;;5050098;28;20722;-55
2021/08/31 06:25:46;;;;;;;17.50;11.30;;;16.40;99.90;;;;;;5053888;28;20706;-56
2021/08/31 06:28:12;;;;;;;15.20;11.57;;;16.40;99.90;;;;;;5052823;28;20689;-54
2021/08/31 06:30:37;;;;;;;13.23;11.87;;;16.40;99.90;;;;;;5052502;28;20191;-56
2021/08/31 06:33:03;;;;;;;12.13;10.80;;;16.40;99.90;;;;;;5052813;28;20210;-55
2021/08/31 06:35:28;;;;;;;14.27;11.57;;;16.40;99.90;;;;;;5052687;28;20463;-55
2021/08/31 06:37:54;;;;;;;13.60;11.37;;;16.30;99.90;;;;;;5053389;28;20193;-55
2021/08/31 06:40:19;;;;;;;15.17;12.43;;;16.20;99.90;;;;;;5058195;28;20534;-55
2021/08/31 06:42:45;;;;;;;13.70;11.77;;;16.30;99.90;;;;;;5051329;28;20674;-56
2021/08/31 06:45:10;;;;;;;11.10;10.03;;;16.40;99.90;;;;;;5052615;28;20223;-55
2021/08/31 06:47:36;;;;;;;14.80;12.20;;;16.50;99.90;;;;;;5052712;28;20178;-56
2021/08/31 06:50:02;;;;;;;12.10;10.40;;;16.50;99.90;;;;;;5068566;28;20181;-56
2021/08/31 06:52:28;;;;;;;11.70;10.50;;;16.60;99.90;;;;;;5052356;28;20262;-56
2021/08/31 06:54:53;;;;;;;14.03;11.47;;;16.60;99.90;;;;;;5052681;28;20867;-55
2021/08/31 06:57:20;;;;;;;15.50;12.00;;;16.50;99.90;;;;;;5052383;28;20188;-55
2021/08/31 06:59:45;;;;;;;12.90;10.60;;;16.60;99.90;;;;;;5050981;28;20181;-56
2021/08/31 07:02:11;;;;;;;12.93;11.60;;;16.60;99.90;;;;;;5057440;28;20779;-55
2021/08/31 07:04:36;;;;;;;12.90;11.60;;;16.50;99.90;;;;;;5052328;28;20209;-55
2021/08/31 07:07:02;;;;;;;15.80;11.93;;;16.40;99.90;;;;;;5052161;28;20233;-54
2021/08/31 07:09:28;;;;;;;16.40;11.90;;;16.40;99.90;;;;;;5057196;28;20187;-58
2021/08/31 07:11:55;;;;;;;14.00;10.20;;;16.30;99.90;;;;;;5051793;28;20183;-58
2021/08/31 07:14:20;;;;;;;15.93;11.33;;;16.40;99.90;;;;;;5051861;28;20176;-57
2021/08/31 07:16:46;;;;;;;19.60;12.20;;;16.40;99.90;;;;;;5051637;28;20448;-58
2021/08/31 07:19:11;;;;;;;14.37;12.53;;;16.40;99.90;;;;;;5051063;28;20689;-58
2021/08/31 07:21:37;;;;;;;12.73;11.10;;;16.40;99.90;;;;;;5051808;28;20191;-57
2021/08/31 07:24:02;;;;;;;14.50;11.47;;;16.30;99.90;;;;;;5052028;28;20196;-59
2021/08/31 07:26:28;;;;;;;12.33;10.97;;;16.50;99.90;;;;;;5051404;28;20176;-58
2021/08/31 07:28:54;;;;;;;12.60;10.70;;;16.50;99.90;;;;;;5051632;28;20268;-58
2021/08/31 07:31:20;;;;;;;11.97;10.17;;;16.60;99.90;;;;;;5051917;28;20532;-57
2021/08/31 07:33:46;;;;;;;10.20;8.80;;;16.60;99.90;;;;;;5051665;28;20199;-58
2021/08/31 07:36:11;;;;;;;11.37;10.07;;;16.70;99.90;;;;;;5051882;28;20846;-58
2021/08/31 07:38:37;;;;;;;11.57;10.47;;;16.70;99.90;;;;;;5051937;28;20679;-59
2021/08/31 07:41:03;;;;;;;12.87;10.03;;;16.70;99.90;;;;;;5051187;28;20212;-59
2021/08/31 07:43:28;;;;;;;10.20;9.20;;;16.80;99.90;;;;;;5051063;28;20502;-58
2021/08/31 07:45:54;;;;;;;11.73;10.27;;;16.70;99.90;;;;;;5051414;28;20699;-58
2021/08/31 07:48:19;;;;;;;11.13;10.03;;;16.70;99.90;;;;;;5051493;28;20186;-58
2021/08/31 07:50:45;;;;;;;13.57;10.93;;;16.70;99.90;;;;;;5050403;28;20184;-58
2021/08/31 07:53:11;;;;;;;11.93;9.77;;;16.80;99.90;;;;;;5051516;28;20174;-57
2021/08/31 07:55:36;;;;;;;11.60;10.40;;;16.90;99.90;;;;;;5050818;28;20189;-57
2021/08/31 07:58:02;;;;;;;13.00;11.43;;;16.80;99.90;;;;;;5051736;28;20183;-57
2021/08/31 08:00:28;;;;;;;12.20;10.40;;;16.80;98.20;;;;;;5049896;28;20179;-58
2021/08/31 08:02:53;;;;;;;12.93;10.80;;;16.60;99.90;;;;;;5051507;28;20185;-58
2021/08/31 08:05:19;;;;;;;15.30;10.80;;;16.60;99.90;;;;;;5050925;28;20231;-59
2021/08/31 08:07:44;;;;;;;13.90;10.50;;;16.80;99.90;;;;;;5050847;28;20266;-57
2021/08/31 08:10:10;;;;;;;11.33;9.90;;;16.90;96.80;;;;;;5049731;28;20357;-57
2021/08/31 08:12:36;;;;;;;10.93;9.83;;;16.90;93.00;;;;;;5051549;28;20177;-56
2021/08/31 08:15:03;;;;;;;11.63;10.53;;;16.90;92.30;;;;;;5050943;28;20448;-58
2021/08/31 08:17:28;;;;;;;11.70;10.50;;;16.90;83.30;;;;;;5050928;28;20189;-58
2021/08/31 08:19:54;;;;;;;12.87;11.53;;;16.90;90.60;;;;;;5051080;28;20420;-57
2021/08/31 08:22:19;;;;;;;14.43;11.50;;;16.80;91.10;;;;;;5050843;28;20183;-57
2021/08/31 08:24:45;;;;;;;12.97;11.50;;;16.80;90.40;;;;;;5050888;28;20252;-57
2021/08/31 08:27:11;;;;;;;12.03;10.63;;;16.70;88.00;;;;;;5050974;28;20268;-58
2021/08/31 08:29:38;;;;;;;12.90;11.60;;;16.60;95.00;;;;;;5051413;28;20442;-58
2021/08/31 08:32:08;;;;;;;14.13;12.50;;;16.60;95.60;;;;;;5050975;28;20179;-59
2021/08/31 08:34:35;;;;;;;13.93;12.10;;;16.60;96.30;;;;;;5051379;28;20858;-57
2021/08/31 08:37:02;;;;;;;15.23;12.90;;;16.60;99.70;;;;;;5050706;28;21592;-58
2021/08/31 08:39:28;;;;;;;15.10;12.97;;;16.50;99.30;;;;;;5050993;28;20582;-57
2021/08/31 08:41:54;;;;;;;14.07;12.67;;;16.60;99.90;;;;;;5050743;28;20458;-57
2021/08/31 08:44:19;;;;;;;12.77;11.13;;;16.60;99.90;;;;;;5051191;28;20474;-58
2021/08/31 08:46:47;;;;;;;13.43;12.00;;;16.60;99.10;;;;;;5050024;28;20532;-58
2021/08/31 08:49:14;;;;;;;14.03;12.23;;;16.60;99.70;;;;;;5051002;28;20584;-58
2021/08/31 08:51:40;;;;;;;14.70;13.20;;;16.50;99.70;;;;;;5050882;28;20444;-56
2021/08/31 08:54:06;;;;;;;14.93;12.87;;;16.40;99.90;;;;;;5050677;28;21025;-57
2021/08/31 08:56:35;;;;;;;14.40;12.90;;;16.40;99.90;;;;;;5050829;28;20216;-56
2021/08/31 08:59:01;;;;;;;14.60;11.50;;;16.50;99.90;;;;;;5050838;28;20443;-58
2021/08/31 09:01:44;;;;;;;15.67;11.77;;;16.50;99.90;;;;;;5064644;28;20431;-57
2021/08/31 09:04:11;;;;;;;13.60;11.67;;;16.50;99.90;;;;;;5070707;28;20200;-57
2021/08/31 09:06:37;;;;;;;13.73;12.03;;;16.40;99.90;;;;;;5051761;28;20518;-57
2021/08/31 09:09:07;;;;;;;14.97;11.77;;;16.40;99.90;;;;;;5049158;28;20629;-57
2021/08/31 09:11:48;;;;;;;22.63;12.37;;;16.40;99.90;;;;;;5050732;28;20216;-57
2021/08/31 09:14:18;;;;;;;14.63;12.23;;;16.30;99.90;;;;;;5050403;28;20835;-58
2021/08/31 09:16:46;;;;;;;20.17;13.00;;;16.20;99.90;;;;;;5050383;28;20472;-57
2021/08/31 09:19:12;;;;;;;13.60;11.50;;;16.20;99.90;;;;;;5050282;28;20441;-58
2021/08/31 09:21:38;;;;;;;14.03;12.53;;;16.30;99.90;;;;;;5050655;28;20431;-58
2021/08/31 09:24:04;;;;;;;12.40;10.83;;;16.40;99.90;;;;;;5048912;28;20490;-57
2021/08/31 09:26:44;;;;;;;12.30;11.10;;;16.40;99.90;;;;;;5049169;28;20451;-57
2021/08/31 09:29:21;;;;;;;13.77;11.57;;;14.70;99.90;;;;;;5050296;28;20509;-57
2021/08/31 09:31:57;;;;;;;12.77;10.60;;;16.30;99.90;;;;;;5049796;28;20865;-58
2021/08/31 09:34:44;;;;;;;14.30;11.83;;;16.30;99.90;;;;;;5050182;28;20956;-57
2021/08/31 09:37:28;;;;;;;13.07;10.37;;;16.20;99.90;;;;;;5048861;28;20449;-57
2021/08/31 09:40:15;;;;;;;13.93;10.60;;;16.30;99.90;;;;;;5050318;28;20428;-57
2021/08/31 09:43:04;;;;;;;11.93;10.43;;;16.20;99.90;;;;;;5050375;28;20433;-57
2021/08/31 09:45:34;;;;;;;10.93;9.33;;;16.30;99.90;;;;;;5050358;28;20797;-58
2021/08/31 09:48:02;;;;;;;12.07;9.70;;;16.30;99.90;;;;;;5049903;28;20712;-58
2021/08/31 09:50:42;;;;;;;10.50;9.50;;;16.20;99.90;;;;;;5050164;28;20418;-59
2021/08/31 09:53:17;;;;;;;9.73;8.80;;;16.20;99.90;;;;;;5047789;28;20828;-57
2021/08/31 09:55:48;;;;;;;8.27;7.13;;;16.30;99.90;;;;;;5049988;28;20436;-57
2021/08/31 09:58:20;;;;;;;8.77;7.77;;;16.40;99.90;;;;;;5051180;28;21044;-58
2021/08/31 10:00:46;;;;;;;9.40;8.20;;;16.30;99.90;;;;;;5052740;28;20439;-58
2021/08/31 10:03:13;;;;;;;7.87;7.17;;;16.30;99.90;;;;;;5053391;28;20490;-58
2021/08/31 10:05:40;;;;;;;9.07;8.10;;;16.50;99.90;;;;;;5053977;28;20462;-59
2021/08/31 10:08:06;;;;;;;8.50;7.70;;;16.50;99.90;;;;;;5053994;28;20938;-58
2021/08/31 10:10:33;;;;;;;7.50;6.80;;;17.50;99.90;;;;;;5053910;28;20478;-58
2021/08/31 10:13:03;;;;;;;7.33;6.63;;;16.70;99.90;;;;;;5053855;28;20440;-58
2021/08/31 10:15:29;;;;;;;7.03;6.43;;;16.70;99.90;;;;;;5053625;28;20440;-58
2021/08/31 10:17:55;;;;;;;7.07;6.37;;;16.80;99.90;;;;;;5053724;28;20440;-59
2021/08/31 10:20:25;;;;;;;7.30;6.60;;;16.90;99.90;;;;;;5053434;28;20452;-57
2021/08/31 10:22:51;;;;;;;6.70;6.10;;;16.80;99.90;;;;;;5053892;28;20183;-59
2021/08/31 10:25:23;;;;;;;7.30;6.60;;;16.70;99.90;;;;;;5053472;28;20821;-58
2021/08/31 10:27:49;;;;;;;6.70;6.10;;;17.00;99.90;;;;;;5053477;28;20431;-58
2021/08/31 10:30:23;;;;;;;7.43;6.33;;;17.00;99.90;;;;;;5053290;28;20410;-60
2021/08/31 10:32:54;;;;;;;7.60;6.90;;;17.20;99.90;;;;;;5053746;28;20448;-58
2021/08/31 10:35:32;;;;;;;7.70;7.00;;;17.20;99.90;;;;;;5053225;28;21006;-57
2021/08/31 10:38:04;;;;;;;7.07;6.33;;;17.10;99.90;;;;;;5053522;28;20436;-58
2021/08/31 10:40:33;;;;;;;6.73;6.13;;;17.20;99.90;;;;;;5053111;28;20450;-57
2021/08/31 10:43:01;;;;;;;10.37;7.00;;;17.20;99.90;;;;;;5052030;28;20959;-59
2021/08/31 10:45:33;;;;;;;10.33;6.90;;;17.50;99.90;;;;;;5052798;28;20569;-57
2021/08/31 10:48:00;;;;;;;8.03;7.23;;;17.50;99.90;;;;;;5053405;28;20733;-58
2021/08/31 10:50:30;;;;;;;7.07;6.47;;;17.60;84.10;;;;;;5053016;28;20439;-58
2021/08/31 10:53:02;;;;;;;8.53;7.67;;;17.70;84.20;;;;;;5053321;28;20467;-59
2021/08/31 10:55:28;;;;;;;8.87;8.07;;;17.70;59.50;;;;;;5052906;28;20468;-58
2021/08/31 10:57:58;;;;;;;10.00;9.00;;;17.80;56.30;;;;;;5053393;28;20437;-58
2021/08/31 11:00:27;;;;;;;10.13;9.13;;;17.70;51.30;;;;;;5052894;28;20201;-58
2021/08/31 11:02:54;;;;;;;10.40;9.33;;;17.70;61.50;;;;;;5052824;28;20464;-58
2021/08/31 11:05:25;;;;;;;12.13;10.93;;;17.70;45.10;;;;;;5052427;28;20798;-59
2021/08/31 11:08:12;;;;;;;11.43;10.27;;;17.70;46.30;;;;;;5057391;28;20415;-58
2021/08/31 11:10:38;;;;;;;12.83;11.53;;;17.70;47.40;;;;;;5072146;28;20846;-58
2021/08/31 11:13:16;;;;;;;12.43;11.30;;;17.70;41.80;;;;;;5072942;28;20440;-57
2021/08/31 11:15:43;;;;;;;13.27;11.87;;;17.50;43.40;;;;;;5072420;28;20442;-58
2021/08/31 11:18:11;;;;;;;12.97;11.60;;;17.60;47.60;;;;;;5072923;28;20933;-59
2021/08/31 11:20:38;;;;;;;15.27;12.30;;;17.70;45.90;;;;;;5056923;28;20456;-58
2021/08/31 11:23:07;;;;;;;13.47;12.07;;;17.70;40.10;;;;;;5052618;28;20469;-58
2021/08/31 11:25:39;;;;;;;13.57;11.80;;;17.90;21.40;;;;;;5052191;28;20859;-59
2021/08/31 11:28:13;;;;;;;13.47;11.70;;;17.90;13.60;;;;;;5052905;28;20997;-57
2021/08/31 11:31:22;;;;;;;13.07;11.73;;;17.90;13.00;;;;;;5052041;28;20501;-58
2021/08/31 11:33:53;;;;;;;13.43;12.00;;;18.00;12.20;;;;;;5039834;28;20446;-58
2021/08/31 11:36:21;;;;;;;11.33;10.23;;;18.10;10.20;;;;;;5052087;28;20919;-57
2021/08/31 11:38:51;;;;;;;13.20;11.80;;;18.00;6.80;;;;;;5051429;28;20464;-57
2021/08/31 11:41:21;;;;;;;12.97;11.70;;;18.20;1.00;;;;;;5050384;28;20932;-58
2021/08/31 11:43:59;;;;;;;12.43;11.23;;;18.10;1.00;;;;;;5051483;28;20436;-58
2021/08/31 11:46:33;;;;;;;12.13;10.83;;;18.10;1.00;;;;;;5050392;28;20996;-57
2021/08/31 11:49:12;;;;;;;15.93;11.57;;;18.00;1.00;;;;;;5051582;28;20440;-58
2021/08/31 11:51:38;;;;;;;14.47;12.97;;;18.10;1.00;;;;;;5051430;28;20515;-57
2021/08/31 11:54:06;;;;;;;14.60;12.20;;;18.00;1.00;;;;;;5051715;28;20899;-57
2021/08/31 11:56:32;;;;;;;14.03;12.50;;;17.90;2.10;;;;;;5051827;28;20821;-58
2021/08/31 11:58:57;;;;;;;15.80;11.10;;;17.90;6.80;;;;;;5051480;28;20475;-58
2021/08/31 12:01:31;;;;;;;13.87;11.63;;;17.90;3.10;;;;;;5051723;28;20206;-58
2021/08/31 12:04:32;;;;;;;13.87;12.57;;;17.90;5.20;;;;;;5051200;28;20274;-57
2021/08/31 12:06:58;;;;;;;13.60;12.30;;;18.00;1.00;;;;;;5028904;28;20543;-58
2021/08/31 12:09:25;;;;;;;14.73;13.10;;;17.80;6.70;;;;;;5046692;28;20434;-57
2021/08/31 12:11:51;;;;;;;14.27;12.73;;;17.90;7.30;;;;;;5051194;28;20179;-58
2021/08/31 12:14:18;;;;;;;12.57;11.20;;;17.80;13.50;;;;;;5051374;28;20443;-59
2021/08/31 12:16:46;;;;;;;12.90;11.60;;;17.70;11.00;;;;;;5051366;28;20269;-58
2021/08/31 12:19:20;;;;;;;13.13;11.83;;;17.80;14.40;;;;;;5051307;28;20867;-58
2021/08/31 12:22:09;;;;;;;12.87;11.67;;;18.00;8.20;;;;;;5049965;28;20870;-59
2021/08/31 12:24:37;;;;;;;13.87;12.47;;;18.10;3.70;;;;;;5051133;28;20476;-58
2021/08/31 12:27:16;;;;;;;12.43;11.23;;;18.10;1.50;;;;;;5051036;28;20439;-60
2021/08/31 12:29:53;;;;;;;13.63;12.13;;;18.30;1.00;;;;;;5051315;28;20459;-59
2021/08/31 12:32:27;;;;;;;18.43;11.60;;;18.50;1.00;;;;;;5050982;28;20418;-60
2021/08/31 12:34:53;;;;;;;12.67;11.47;;;18.80;1.00;;;;;;5049111;28;20866;-57
2021/08/31 12:37:29;;;;;;;12.93;11.63;;;19.00;1.00;;;;;;5032896;28;20442;-58